Time;durP1;ratioP1;P1;durP2;ratioP2;P2;SDS_P1;SDS_P2;PMS_P1;PMS_P2;Temp;Humidity;BMP_temperature;BMP_pressure;BME280_temperature;BME280_humidity;BME280_pressure;Samples;Min_cycle;Max_cycle;Signal;HPM_P1;HPM_P2
2022/07/06 00:00:45;;;;;;;;;21.67;21.67;;;;;19.73;91.90;99406.88;6313022;20;2839964;-60
2022/07/06 00:03:13;;;;;;;;;19.00;17.00;;;;;19.77;91.96;99407.41;6316234;20;3563915;-60
2022/07/06 00:05:42;;;;;;;;;19.00;19.00;;;;;19.64;92.57;99413.28;6282635;20;3581602;-60
2022/07/06 00:08:11;;;;;;;;;25.33;24.00;;;;;19.68;92.25;99403.78;6283595;20;3589876;-61
2022/07/06 00:10:40;;;;;;;;;21.67;21.67;;;;;19.43;93.14;99391.84;6280640;20;3585736;-60
2022/07/06 00:13:09;;;;;;;;;26.67;22.67;;;;;19.52;92.67;99403.66;6309166;20;3582637;-60
2022/07/06 00:15:38;;;;;;;;;22.67;22.67;;;;;19.34;93.92;99398.22;6284864;20;3591911;-61
2022/07/06 00:18:06;;;;;;;;;23.33;21.00;;;;;19.46;93.15;99396.13;6283878;20;3585649;-59
2022/07/06 00:20:35;;;;;;;;;23.33;23.33;;;;;19.38;93.96;99396.03;6282274;20;3600356;-59
2022/07/06 00:23:04;;;;;;;;;20.33;20.33;;;;;19.43;93.20;99397.28;6284794;20;3580496;-60
2022/07/06 00:25:32;;;;;;;;;23.00;21.00;;;;;19.39;93.45;99393.16;6280212;20;3582611;-60
2022/07/06 00:28:01;;;;;;;;;25.00;24.00;;;;;19.41;93.17;99382.97;6281092;20;3598170;-59
2022/07/06 00:30:30;;;;;;;;;23.00;23.00;;;;;19.32;93.70;99378.47;6282656;20;3589867;-60
2022/07/06 00:33:00;;;;;;;;;23.67;23.67;;;;;19.36;93.41;99390.75;6278574;20;3598175;-60
2022/07/06 00:35:28;;;;;;;;;23.33;20.33;;;;;19.36;92.95;99393.47;6314149;20;3579544;-60
2022/07/06 00:37:57;;;;;;;;;27.00;22.67;;;;;19.17;93.42;99388.19;6282121;20;3591899;-59
2022/07/06 00:40:26;;;;;;;;;24.00;24.00;;;;;19.19;93.84;99394.34;6283589;20;3593975;-60
2022/07/06 00:42:55;;;;;;;;;24.00;24.00;;;;;19.01;94.36;99389.78;6282609;20;3589897;-59
2022/07/06 00:45:25;;;;;;;;;21.00;21.00;;;;;19.08;94.22;99388.13;6281001;20;3580667;-59
2022/07/06 00:47:54;;;;;;;;;26.00;25.67;;;;;19.16;93.64;99391.94;6283434;20;3600272;-60
2022/07/06 00:50:23;;;;;;;;;26.67;24.00;;;;;19.13;93.54;99389.53;6282336;20;3579460;-59
2022/07/06 00:52:59;;;;;;;;;24.00;24.00;;;;;19.13;93.97;99386.81;6280613;20;3596114;-60
2022/07/06 00:55:34;;;;;;;;;27.33;24.33;;;;;19.14;93.28;99383.94;6284343;20;3596163;-59
2022/07/06 00:58:05;;;;;;;;;22.33;22.33;;;;;19.23;92.76;99384.88;6287559;20;3588823;-59
2022/07/06 01:00:34;;;;;;;;;28.33;26.33;;;;;19.03;94.02;99382.31;6288567;20;3596116;-59
2022/07/06 01:03:03;;;;;;;;;25.00;23.00;;;;;18.96;94.67;99375.78;6285330;20;3587912;-59
2022/07/06 01:05:32;;;;;;;;;25.00;23.67;;;;;18.97;93.69;99377.50;6286631;20;3585879;-59
2022/07/06 01:08:00;;;;;;;;;26.33;26.33;;;;;18.82;94.35;99371.72;6289620;20;3599209;-59
2022/07/06 01:10:29;;;;;;;;;26.33;23.67;;;;;18.84;94.44;99366.16;6286368;20;3593983;-59
2022/07/06 01:12:58;;;;;;;;;23.00;23.00;;;;;18.74;95.03;99362.59;6288969;20;3591883;-52
2022/07/06 01:15:27;;;;;;;;;31.33;29.67;;;;;18.72;95.50;99370.06;6288265;20;3596208;-51
2022/07/06 01:17:55;;;;;;;;;30.00;27.00;;;;;18.79;94.89;99371.19;6289392;20;3599182;-56
2022/07/06 01:20:26;;;;;;;;;27.00;27.00;;;;;18.92;93.87;99379.81;6288482;20;3578575;-54
2022/07/06 01:22:58;;;;;;;;;22.67;22.67;;;;;18.80;94.48;99372.88;6284800;20;3583589;-54
2022/07/06 01:25:26;;;;;;;;;24.67;22.33;;;;;18.79;94.16;99377.47;6284525;20;3600232;-55
2022/07/06 01:27:55;;;;;;;;;30.67;27.67;;;;;18.72;94.76;99367.34;6285704;20;3591914;-53
2022/07/06 01:30:24;;;;;;;;;29.67;28.67;;;;;18.65;95.17;99372.56;6287012;20;3580524;-54
2022/07/06 01:32:53;;;;;;;;;34.67;31.33;;;;;18.67;95.20;99370.53;6285255;20;3595081;-53
2022/07/06 01:35:24;;;;;;;;;33.00;31.00;;;;;18.84;94.49;99368.88;6287488;20;3586753;-54
2022/07/06 01:37:53;;;;;;;;;33.00;32.00;;;;;18.66;95.02;99371.53;6286124;20;3594032;-52
2022/07/06 01:40:22;;;;;;;;;38.00;32.67;;;;;18.67;94.31;99372.38;6286080;20;3602422;-54
2022/07/06 01:42:51;;;;;;;;;35.00;32.00;;;;;18.65;95.02;99373.41;6314556;20;3603388;-55
2022/07/06 01:45:19;;;;;;;;;34.33;32.33;;;;;18.51;95.53;99376.66;6282777;20;3594008;-53
2022/07/06 01:47:49;;;;;;;;;35.00;32.00;;;;;18.51;95.51;99381.22;6280584;20;2857746;-54
2022/07/06 01:50:17;;;;;;;;;41.00;35.33;;;;;18.61;95.15;99387.47;6315142;20;3588767;-54
2022/07/06 01:52:46;;;;;;;;;39.67;33.00;;;;;18.63;95.33;99394.44;6283250;20;3587718;-56
2022/07/06 01:55:15;;;;;;;;;38.00;35.00;;;;;18.70;94.31;99389.28;6283774;20;3584588;-53
2022/07/06 01:57:43;;;;;;;;;39.00;35.67;;;;;18.64;94.39;99393.47;6282472;20;3619121;-53
2022/07/06 02:00:14;;;;;;;;;35.33;34.00;;;;;18.57;95.13;99399.66;6283987;20;3601435;-55
2022/07/06 02:02:42;;;;;;;;;36.67;33.00;;;;;18.59;94.95;99393.06;6316320;20;3599267;-54
2022/07/06 02:05:12;;;;;;;;;37.00;33.75;;;;;18.64;94.25;99388.03;6287349;20;3598141;-54
2022/07/06 02:07:41;;;;;;;;;41.00;36.33;;;;;18.42;94.86;99383.84;6319559;20;3587789;-55
2022/07/06 02:10:09;;;;;;;;;40.33;34.33;;;;;18.27;95.53;99384.50;6287857;20;3589809;-53
2022/07/06 02:12:39;;;;;;;;;39.33;34.67;;;;;18.33;96.10;99394.81;6281942;20;2855552;-53
2022/07/06 02:15:09;;;;;;;;;34.67;33.00;;;;;18.42;95.15;99393.88;6318182;20;3597260;-52
2022/07/06 02:17:37;;;;;;;;;34.67;32.67;;;;;18.43;95.21;99398.28;6285532;20;3612745;-52
2022/07/06 02:20:07;;;;;;;;;36.00;32.00;;;;;18.46;95.05;99397.13;6288267;20;3606644;-52
2022/07/06 02:22:36;;;;;;;;;32.67;31.33;;;;;18.37;95.32;99398.91;6287324;20;3600326;-54
2022/07/06 02:25:06;;;;;;;;;35.00;31.67;;;;;18.44;94.89;99391.88;6281448;20;3591908;-56
2022/07/06 02:27:34;;;;;;;;;30.67;29.67;;;;;18.40;95.50;99402.19;6284193;20;3579425;-53
2022/07/06 02:30:05;;;;;;;;;32.00;29.67;;;;;18.27;95.71;99406.25;6281384;20;3597313;-52
2022/07/06 02:32:34;;;;;;;;;25.33;25.00;;;;;18.32;95.32;99403.94;6283077;20;3602351;-55
2022/07/06 02:35:03;;;;;;;;;26.00;26.00;;;;;18.42;94.69;99402.88;6280603;20;3587874;-53
2022/07/06 02:37:32;;;;;;;;;25.00;24.00;;;;;18.38;95.20;99408.78;6277981;20;2658610;-54
2022/07/06 02:40:01;;;;;;;;;26.33;24.33;;;;;18.37;94.84;99415.22;6312858;20;3596081;-51
2022/07/06 02:42:30;;;;;;;;;18.50;17.00;;;;;18.35;95.42;99409.06;6280847;20;2826318;-53
2022/07/06 02:44:58;;;;;;;;;25.00;25.00;;;;;18.38;95.19;99408.78;6283667;20;3591890;-54
2022/07/06 02:47:27;;;;;;;;;21.00;21.00;;;;;18.37;95.31;99423.38;6281798;20;3575231;-52
2022/07/06 02:49:56;;;;;;;;;24.00;23.33;;;;;18.32;95.54;99421.09;6285132;20;3592993;-53
2022/07/06 02:52:25;;;;;;;;;23.67;22.00;;;;;18.40;94.73;99423.94;6283973;20;2845602;-53
2022/07/06 02:54:54;;;;;;;;;24.33;24.33;;;;;18.36;95.01;99425.25;6313842;20;3594115;-51
2022/07/06 02:57:24;;;;;;;;;20.00;20.00;;;;;18.31;95.48;99424.84;6291093;20;2824497;-52
2022/07/06 02:59:52;;;;;;;;;22.00;21.00;;;;;18.32;95.25;99431.13;6317876;20;3580722;-53
2022/07/06 03:02:21;;;;;;;;;22.33;21.00;;;;;18.48;94.54;99433.19;6283954;20;3581468;-53
2022/07/06 03:04:51;;;;;;;;;21.50;20.50;;;;;18.50;94.38;99434.75;6282926;20;2836809;-53
2022/07/06 03:07:20;;;;;;;;;19.67;19.67;;;;;18.61;93.72;99434.53;6281527;20;2839849;-53
2022/07/06 03:09:49;;;;;;;;;20.00;20.00;;;;;18.63;93.46;99439.84;6316232;20;3576822;-53
2022/07/06 03:12:18;;;;;;;;;22.00;20.00;;;;;18.45;93.92;99431.63;6280050;20;2836848;-53
2022/07/06 03:14:47;;;;;;;;;22.67;20.67;;;;;18.59;93.62;99436.56;6279760;20;2851380;-55
2022/07/06 03:17:15;;;;;;;;;18.00;17.00;;;;;18.68;93.01;99444.81;6305991;20;2483622;-52
2022/07/06 03:19:44;;;;;;;;;16.50;16.50;;;;;18.65;92.98;99443.25;6283089;20;2822182;-53
2022/07/06 03:22:13;;;;;;;;;18.67;17.33;;;;;18.79;92.86;99452.78;6288006;20;3564852;-58
2022/07/06 03:24:41;;;;;;;;;17.00;15.00;;;;;18.88;92.48;99454.63;6312150;20;2821294;-57
2022/07/06 03:27:10;;;;;;;;;18.67;18.67;;;;;18.75;92.52;99451.41;6281696;20;3577342;-57
2022/07/06 03:29:39;;;;;;;;;14.00;14.00;;;;;18.85;92.13;99454.88;6282104;20;2808737;-56
2022/07/06 03:32:08;;;;;;;;;17.00;17.00;;;;;18.98;91.42;99460.81;6283319;20;2828406;-57
2022/07/06 03:34:36;;;;;;;;;17.50;17.50;;;;;19.05;91.17;99461.91;6281307;20;2839891;-56
2022/07/06 03:37:06;;;;;;;;;16.50;16.50;;;;;18.96;91.53;99468.31;6281167;20;2826341;-56
2022/07/06 03:39:35;;;;;;;;;16.00;16.00;;;;;18.98;91.64;99471.69;6282544;20;2828380;-56
2022/07/06 03:42:03;;;;;;;;;16.00;16.00;;;;;18.92;91.90;99472.31;6282169;20;2483751;-58
2022/07/06 03:44:31;;;;;;;;;16.50;16.50;;;;;18.89;91.94;99467.19;6280753;20;2831548;-57
2022/07/06 03:47:00;;;;;;;;;16.00;16.00;;;;;18.93;91.41;99459.56;6280507;20;2826458;-56
2022/07/06 03:49:28;;;;;;;;;17.50;16.00;;;;;19.01;91.20;99462.38;6270320;20;2483613;-58
2022/07/06 03:51:56;;;;;;;;;16.00;16.00;;;;;19.00;91.42;99457.97;6280332;20;2484019;-57
2022/07/06 03:54:24;;;;;;;;;13.33;13.33;;;;;18.95;91.20;99455.69;6278604;20;3534172;-57
2022/07/06 03:56:53;;;;;;;;;12.00;10.67;;;;;18.98;90.81;99454.53;6310984;20;2793067;-55
2022/07/06 03:59:21;;;;;;;;;12.50;11.00;;;;;19.21;89.58;99465.81;6315044;20;2804435;-57
2022/07/06 04:01:49;;;;;;;;;12.00;12.00;;;;;19.24;89.75;99469.06;6281691;20;3532538;-55
2022/07/06 04:04:17;;;;;;;;;8.00;8.00;;;;;19.31;89.05;99463.88;6281175;20;2742070;-57
2022/07/06 04:06:46;;;;;;;;;12.00;10.67;;;;;19.57;88.03;99460.38;6281227;20;3519005;-57
2022/07/06 04:09:14;;;;;;;;;9.50;9.00;;;;;19.59;87.10;99464.66;6312406;20;2757598;-57
2022/07/06 04:11:42;;;;;;;;;10.67;9.67;;;;;19.72;86.99;99466.97;6283288;20;2782602;-57
2022/07/06 04:14:10;;;;;;;;;8.00;8.00;;;;;19.99;85.59;99467.88;6312970;20;2750384;-57
2022/07/06 04:16:39;;;;;;;;;9.80;9.00;;;;;20.25;84.92;99476.00;6305584;20;2759656;-58
2022/07/06 04:19:09;;;;;;;;;8.80;8.80;;;;;20.05;85.22;99480.84;6308106;20;2754531;-57
2022/07/06 04:21:39;;;;;;;;;8.00;8.00;;;;;20.00;85.42;99481.31;6308940;20;2740297;-57
2022/07/06 04:24:08;;;;;;;;;9.00;9.00;;;;;20.03;84.73;99478.25;6311504;20;3473243;-57
2022/07/06 04:26:37;;;;;;;;;8.00;8.00;;;;;19.91;85.67;99469.50;6332119;20;2750764;-57
2022/07/06 04:29:07;;;;;;;;;8.00;8.00;;;;;19.99;84.91;99462.41;6311465;20;2750277;-57
2022/07/06 04:31:36;;;;;;;;;7.40;7.40;;;;;20.01;84.14;99468.53;6313115;20;2756498;-58
2022/07/06 04:34:06;;;;;;;;;7.20;7.00;;;;;20.01;83.95;99465.81;6316379;20;2737222;-58
2022/07/06 04:36:35;;;;;;;;;7.20;7.20;;;;;20.15;83.53;99465.22;6336557;20;2744086;-58
2022/07/06 04:39:05;;;;;;;;;6.00;6.00;;;;;20.07;83.99;99463.31;6310458;20;2739849;-57
2022/07/06 04:41:34;;;;;;;;;10.60;8.00;;;;;20.37;83.27;99464.66;6341138;20;2770074;-57
2022/07/06 04:44:04;;;;;;;;;7.80;6.60;;;;;20.58;82.15;99463.41;6312859;20;2735761;-57
2022/07/06 04:46:35;;;;;;;;;8.86;8.00;;;;;20.63;82.10;99463.78;6360591;20;3460633;-58
2022/07/06 04:49:05;;;;;;;;;7.20;7.20;;;;;20.80;81.93;99470.16;6343512;20;2752418;-56
2022/07/06 04:51:34;;;;;;;;;6.80;6.80;;;;;20.65;82.09;99461.75;6312599;20;2748193;-58
2022/07/06 04:54:05;;;;;;;;;8.20;7.40;;;;;20.52;82.23;99466.78;6345279;20;2750304;-58
2022/07/06 04:56:33;;;;;;;;;9.33;8.00;;;;;20.55;82.12;99459.16;6284832;20;2762866;-58
2022/07/06 04:59:03;;;;;;;;;10.40;8.00;;;;;20.71;81.45;99458.34;6341609;20;2777391;-58
2022/07/06 05:01:32;;;;;;;;;6.00;6.00;;;;;20.72;81.15;99465.53;6314949;20;2744036;-57
2022/07/06 05:04:02;;;;;;;;;6.40;6.00;;;;;20.88;80.90;99469.31;6341813;20;2741945;-59
2022/07/06 05:06:32;;;;;;;;;6.20;6.20;;;;;21.02;80.36;99469.53;6313120;20;2739979;-58
2022/07/06 05:09:02;;;;;;;;;7.00;7.00;;;;;21.07;79.48;99466.31;6343649;20;2748168;-58
2022/07/06 05:11:33;;;;;;;;;4.14;4.14;;;;;21.46;78.17;99471.19;6332268;20;3434667;-58
2022/07/06 05:14:02;;;;;;;;;7.20;6.80;;;;;21.71;76.96;99477.50;6343269;20;2727415;-58
2022/07/06 05:19:18;;;;;;;;;6.60;6.60;;;;;21.98;76.43;99491.81;6342502;20;2738806;-57
2022/07/06 05:21:48;;;;;;;;;6.00;6.00;;;;;22.20;75.01;99490.31;6342729;20;2744005;-58
2022/07/06 05:24:18;;;;;;;;;5.00;5.00;;;;;22.31;73.70;99498.13;6308734;20;2734673;-58
2022/07/06 05:26:48;;;;;;;;;5.00;5.00;;;;;22.84;72.97;99506.66;6342028;20;2750257;-58
2022/07/06 05:29:16;;;;;;;;;5.00;4.00;;;;;23.15;71.94;99513.03;6320259;20;2750291;-58
2022/07/06 05:31:46;;;;;;;;;3.20;3.20;;;;;22.97;70.95;99515.19;6342764;20;2755472;-59
2022/07/06 05:34:15;;;;;;;;;6.00;4.00;;;;;23.00;70.92;99515.69;6311670;20;2749192;-58
2022/07/06 05:36:45;;;;;;;;;3.80;3.80;;;;;23.38;69.28;99525.91;6311928;20;2735774;-58
2022/07/06 05:39:19;;;;;;;;;4.00;2.80;;;;;22.64;71.66;99519.91;6342381;20;2738844;-58
2022/07/06 05:41:49;;;;;;;;;5.60;4.40;;;;;22.86;70.75;99513.66;6343037;20;2746116;-58
2022/07/06 05:44:19;;;;;;;;;2.80;2.80;;;;;22.63;71.84;99523.69;6312818;20;2741931;-58
2022/07/06 05:46:48;;;;;;;;;4.60;4.00;;;;;22.93;70.12;99531.09;6340555;20;2748599;-58
2022/07/06 05:52:06;;;;;;;;;3.40;3.40;;;;;22.93;70.00;99528.38;6343533;20;2747152;-58
2022/07/06 05:54:36;;;;;;;;;4.00;4.00;;;;;23.41;69.56;99537.38;6310450;20;2749897;-58
2022/07/06 05:57:05;;;;;;;;;3.60;3.00;;;;;23.42;69.06;99540.97;6339140;20;2752424;-57
2022/07/06 05:59:34;;;;;;;;;4.00;4.00;;;;;23.83;67.93;99549.78;6308818;20;2752394;-58
2022/07/06 06:02:03;;;;;;;;;4.00;4.00;;;;;24.22;66.45;99545.16;6288576;20;2745142;-58
2022/07/06 06:04:33;;;;;;;;;3.40;3.00;;;;;24.39;66.19;99554.09;6341532;20;2755520;-58
2022/07/06 06:07:02;;;;;;;;;4.60;4.20;;;;;24.29;67.02;99555.19;6303987;20;2748282;-58
2022/07/06 06:09:32;;;;;;;;;3.20;3.20;;;;;24.02;67.45;99553.06;6309420;20;2737757;-58
2022/07/06 06:12:02;;;;;;;;;3.20;3.20;;;;;24.35;66.15;99550.00;6339076;20;2750281;-57
2022/07/06 06:14:30;;;;;;;;;3.00;3.00;;;;;24.50;65.82;99564.63;6284549;20;2753407;-58
2022/07/06 06:17:00;;;;;;;;;4.00;4.00;;;;;24.31;65.87;99563.25;6337052;20;2739865;-58
2022/07/06 06:19:29;;;;;;;;;4.00;4.00;;;;;23.96;65.78;99551.03;6337964;20;2741101;-58
2022/07/06 06:21:59;;;;;;;;;4.00;4.00;;;;;24.26;65.99;99557.47;6306211;20;2748167;-56
2022/07/06 06:24:28;;;;;;;;;4.60;4.60;;;;;23.72;67.03;99563.91;6304420;20;2747341;-58
2022/07/06 06:26:59;;;;;;;;;7.00;4.00;;;;;23.92;67.23;99568.91;6277022;20;2767951;-58
2022/07/06 06:29:29;;;;;;;;;4.00;4.00;;;;;23.95;67.38;99563.91;6338495;20;2742985;-58
2022/07/06 06:31:58;;;;;;;;;4.80;4.80;;;;;24.05;67.68;99563.66;6336457;20;2742946;-58
2022/07/06 06:34:28;;;;;;;;;5.20;4.00;;;;;23.70;66.99;99565.97;6335417;20;2736944;-58
2022/07/06 06:36:58;;;;;;;;;4.60;3.60;;;;;23.98;65.77;99568.16;6336810;20;2750244;-56
2022/07/06 06:39:27;;;;;;;;;3.00;3.00;;;;;24.05;66.23;99569.16;6309323;20;2740863;-58
2022/07/06 06:41:57;;;;;;;;;3.20;3.20;;;;;24.04;66.61;99582.00;6307943;20;2746507;-59
2022/07/06 06:44:27;;;;;;;;;5.00;5.00;;;;;24.01;66.20;99579.66;6307517;20;2734624;-58
2022/07/06 06:46:56;;;;;;;;;4.00;4.00;;;;;23.56;67.86;99577.69;6334671;20;2754510;-57
2022/07/06 06:49:26;;;;;;;;;3.40;3.20;;;;;23.59;67.19;99585.53;6308637;20;2737787;-58
2022/07/06 06:51:54;;;;;;;;;4.00;4.00;;;;;23.85;66.82;99586.06;6312031;20;2755548;-58
2022/07/06 06:54:44;;;;;;;;;3.60;3.60;;;;;24.04;66.27;99586.63;6336249;20;2745065;-57
2022/07/06 06:57:13;;;;;;;;;5.00;5.00;;;;;24.24;65.51;99585.09;6334776;20;2741944;-58
2022/07/06 06:59:43;;;;;;;;;5.60;5.60;;;;;23.74;66.87;99588.41;6306254;20;2730543;-58
2022/07/06 07:02:12;;;;;;;;;5.00;5.00;;;;;24.09;66.68;99597.91;6338437;20;2728497;-58
2022/07/06 07:04:42;;;;;;;;;6.00;4.80;;;;;24.04;66.99;99601.22;6335226;20;2745080;-57
2022/07/06 07:07:10;;;;;;;;;5.00;5.00;;;;;24.07;66.04;99611.81;6279292;20;2739872;-58
2022/07/06 07:09:40;;;;;;;;;4.20;4.20;;;;;24.00;66.71;99610.00;6336279;20;2745049;-58
2022/07/06 07:12:11;;;;;;;;;5.00;5.00;;;;;24.07;66.04;99611.81;6337483;20;2739991;-58
2022/07/06 07:14:41;;;;;;;;;5.20;5.20;;;;;24.21;66.29;99618.38;6338979;20;2746081;-58
2022/07/06 07:17:11;;;;;;;;;3.60;3.60;;;;;24.12;65.53;99614.03;6302282;20;2736700;-57
2022/07/06 07:19:40;;;;;;;;;3.00;3.00;;;;;24.13;65.78;99629.44;6336049;20;2736740;-57
2022/07/06 07:22:10;;;;;;;;;5.60;3.80;;;;;23.89;65.86;99622.25;6334763;20;2751395;-58
2022/07/06 07:24:40;;;;;;;;;3.00;3.00;;;;;23.92;66.00;99624.63;6306313;20;2755485;-58
2022/07/06 07:27:09;;;;;;;;;4.40;4.40;;;;;24.34;65.33;99623.25;6305861;20;2750255;-58
2022/07/06 07:29:39;;;;;;;;;3.80;2.60;;;;;25.03;63.16;99631.31;6309426;20;2724324;-57
2022/07/06 07:32:08;;;;;;;;;3.80;2.40;;;;;25.93;59.81;99635.69;6339034;20;2728396;-58
2022/07/06 07:34:38;;;;;;;;;2.00;2.00;;;;;25.68;59.83;99631.56;6341219;20;2735728;-58
2022/07/06 07:37:07;;;;;;;;;3.00;3.00;;;;;25.36;60.27;99634.56;6336802;20;2727465;-58
2022/07/06 07:39:37;;;;;;;;;3.00;3.00;;;;;25.01;61.36;99629.81;6339433;20;2737820;-58
2022/07/06 07:42:07;;;;;;;;;1.40;1.40;;;;;24.88;61.73;99630.47;6341182;20;2736727;-58
2022/07/06 07:44:40;;;;;;;;;3.00;3.00;;;;;25.21;61.88;99633.72;6341680;20;2739874;-58
2022/07/06 07:47:10;;;;;;;;;2.00;2.00;;;;;25.92;59.96;99633.16;6340701;20;2744043;-56
2022/07/06 07:49:40;;;;;;;;;3.20;2.00;;;;;26.47;57.96;99639.81;6343412;20;2735691;-58
2022/07/06 07:52:10;;;;;;;;;2.00;2.00;;;;;26.64;56.96;99637.63;6343770;20;2743997;-58
2022/07/06 07:54:41;;;;;;;;;2.50;1.83;;;;;26.34;57.18;99643.31;6368896;20;1790966;-59
2022/07/06 07:57:17;;;;;;;;;1.40;1.40;;;;;27.35;55.09;99645.75;6340807;20;2731515;-58
2022/07/06 07:59:46;;;;;;;;;1.60;1.60;;;;;27.49;53.94;99647.53;6344014;20;2735734;-58
2022/07/06 08:02:16;;;;;;;;;1.00;1.00;;;;;27.53;53.34;99647.97;6341909;20;2727446;-58
2022/07/06 08:04:45;;;;;;;;;1.00;1.00;;;;;27.83;53.01;99656.81;6342794;20;2721156;-58
2022/07/06 08:07:15;;;;;;;;;2.00;2.00;;;;;28.58;51.21;99657.59;6341153;20;2750316;-59
2022/07/06 08:09:44;;;;;;;;;1.20;1.20;;;;;28.33;51.22;99649.06;6311236;20;2737779;-58
2022/07/06 08:12:14;;;;;;;;;2.00;2.00;;;;;28.06;51.80;99648.16;6312883;20;2738846;-58
2022/07/06 08:14:43;;;;;;;;;2.00;2.00;;;;;29.61;48.46;99668.06;6310667;20;2737872;-59
2022/07/06 08:17:13;;;;;;;;;1.60;1.60;;;;;28.18;51.09;99660.31;6309980;20;2741933;-58
2022/07/06 08:19:42;;;;;;;;;2.00;2.00;;;;;27.48;52.91;99667.03;6318567;20;2746228;-58
2022/07/06 08:22:12;;;;;;;;;2.00;2.00;;;;;26.86;54.62;99661.34;6312384;20;2744041;-57
2022/07/06 08:24:41;;;;;;;;;2.60;2.00;;;;;27.04;54.60;99665.47;6309145;20;2741930;-59
2022/07/06 08:27:11;;;;;;;;;1.60;1.00;;;;;26.29;55.91;99665.06;6311039;20;2735861;-59
2022/07/06 08:29:40;;;;;;;;;1.50;1.50;;;;;26.05;57.38;99653.38;6342732;20;1912986;-59
2022/07/06 08:32:10;;;;;;;;;2.60;2.60;;;;;26.36;56.64;99668.75;6342116;20;2752431;-58
2022/07/06 08:34:50;;;;;;;;;2.00;2.00;;;;;26.49;56.24;99663.34;6311926;20;2740863;-59
2022/07/06 08:37:20;;;;;;;;;2.20;2.20;;;;;27.02;55.03;99673.97;6339439;20;2734621;-59
2022/07/06 08:39:50;;;;;;;;;0.60;0.60;;;;;27.12;55.77;99673.59;6345126;20;2727348;-59
2022/07/06 08:42:20;;;;;;;;;2.00;2.00;;;;;26.88;55.51;99673.03;6340830;20;2743993;-59
2022/07/06 08:44:54;;;;;;;;;2.20;2.20;;;;;26.58;56.18;99671.50;6309897;20;2742952;-59
2022/07/06 08:47:24;;;;;;;;;2.40;2.40;;;;;26.21;56.70;99667.94;6306277;20;2742104;-59
2022/07/06 08:49:56;;;;;;;;;2.60;2.00;;;;;26.95;55.88;99670.31;6309025;20;2737810;-59
2022/07/06 08:52:25;;;;;;;;;2.00;2.00;;;;;27.96;53.27;99669.78;6310941;20;2723266;-59
2022/07/06 08:54:56;;;;;;;;;1.60;1.60;;;;;28.82;50.98;99663.56;6339872;20;2748205;-59
2022/07/06 08:57:27;;;;;;;;;2.80;2.80;;;;;28.84;50.31;99669.72;6305542;20;2752985;-58
2022/07/06 08:59:56;;;;;;;;;2.00;2.00;;;;;29.38;49.13;99662.19;6307997;20;2742977;-59
2022/07/06 09:02:26;;;;;;;;;3.40;3.40;;;;;29.06;49.99;99673.97;6311395;20;2739950;-59
2022/07/06 09:04:57;;;;;;;;;5.00;3.20;;;;;29.39;47.47;99675.81;6311016;20;2751375;-59
2022/07/06 09:07:29;;;;;;;;;1.20;1.20;;;;;29.86;45.87;99679.28;6304780;20;2727345;-58
2022/07/06 09:10:22;;;;;;;;;3.67;3.67;;;;;29.79;46.09;99677.63;6317580;20;2752399;-59
2022/07/06 09:12:54;;;;;;;;;4.80;4.80;;;;;30.58;45.04;99679.06;6338123;20;2744014;-58
2022/07/06 09:15:28;;;;;;;;;6.67;5.00;;;;;29.89;45.89;99673.31;6287781;20;2735653;-58
2022/07/06 09:17:57;;;;;;;;;4.67;4.67;;;;;28.56;47.59;99670.78;6321590;20;2746111;-59
2022/07/06 09:20:27;;;;;;;;;5.20;5.20;;;;;27.95;49.43;99657.06;6343504;20;2742977;-59
2022/07/06 09:23:02;;;;;;;;;5.00;5.00;;;;;27.77;50.38;99661.22;6290677;20;2746155;-58
2022/07/06 09:25:32;;;;;;;;;5.00;5.00;;;;;28.52;49.31;99664.00;6320777;20;2731508;-59
2022/07/06 09:28:02;;;;;;;;;6.00;6.00;;;;;28.29;50.53;99661.59;6322751;20;2748192;-59
2022/07/06 09:30:30;;;;;;;;;5.00;5.00;;;;;28.69;48.89;99658.03;6323010;20;2738851;-58
2022/07/06 09:32:59;;;;;;;;;5.00;5.00;;;;;30.25;45.70;99668.22;6321899;20;2734728;-59
2022/07/06 09:35:38;;;;;;;;;8.67;7.00;;;;;30.29;44.93;99664.78;6323776;20;2756549;-59
2022/07/06 09:38:14;;;;;;;;;5.40;5.40;;;;;29.49;47.53;99665.16;6346350;20;2744015;-59
2022/07/06 09:40:46;;;;;;;;;5.00;5.00;;;;;30.80;45.03;99660.94;6314529;20;2736922;-59
2022/07/06 09:43:20;;;;;;;;;4.00;4.00;;;;;30.99;44.04;99669.34;6286785;20;2745041;-59
2022/07/06 09:45:53;;;;;;;;;7.00;7.00;;;;;30.73;45.17;99662.06;6322248;20;2748212;-59
2022/07/06 09:48:27;;;;;;;;;6.33;6.00;;;;;30.58;44.13;99660.50;6320869;20;2741003;-59
2022/07/06 09:51:06;;;;;;;;;6.00;6.00;;;;;31.49;42.75;99658.16;6323636;20;2746103;-59
2022/07/06 09:53:37;;;;;;;;;6.00;6.00;;;;;28.93;46.13;99643.53;6346224;20;2735733;-60
2022/07/06 09:56:06;;;;;;;;;4.40;4.40;;;;;29.06;47.09;99662.91;6315891;20;2738899;-59
2022/07/06 09:58:39;;;;;;;;;6.67;6.33;;;;;28.89;47.93;99661.63;6285538;20;2738897;-59
2022/07/06 10:01:29;;;;;;;;;5.67;5.67;;;;;28.28;49.02;99661.78;6322096;20;2735746;-59
2022/07/06 10:03:58;;;;;;;;;7.33;6.00;;;;;27.89;50.01;99657.91;6321122;20;2737171;-59
2022/07/06 10:06:26;;;;;;;;;7.00;6.00;;;;;27.82;49.51;99657.88;6322278;20;2729466;-58
2022/07/06 10:08:58;;;;;;;;;7.00;7.00;;;;;29.19;46.56;99663.94;6321375;20;2739859;-59
2022/07/06 10:11:29;;;;;;;;;7.33;6.00;;;;;30.22;44.18;99658.41;6323277;20;2736827;-59
2022/07/06 10:13:58;;;;;;;;;4.67;4.67;;;;;30.03;43.74;99657.47;6329060;20;2740005;-59
2022/07/06 10:16:26;;;;;;;;;5.00;4.00;;;;;30.92;43.17;99655.56;6317854;20;2733659;-59
2022/07/06 10:18:56;;;;;;;;;7.33;6.00;;;;;30.13;42.88;99648.66;6321861;20;2748172;-59
2022/07/06 10:21:25;;;;;;;;;8.00;5.33;;;;;30.60;42.57;99649.22;6321079;20;2736715;-59
2022/07/06 10:23:54;;;;;;;;;4.67;4.67;;;;;30.14;41.78;99651.19;6320265;20;2749669;-59
2022/07/06 10:26:24;;;;;;;;;7.00;5.33;;;;;30.78;40.73;99652.03;6327775;20;2739837;-59
2022/07/06 10:28:53;;;;;;;;;4.33;2.67;;;;;31.61;40.12;99649.91;6318549;20;2746187;-58
2022/07/06 10:31:23;;;;;;;;;4.00;4.00;;;;;31.68;39.74;99656.22;6318991;20;2748155;-59
2022/07/06 10:33:57;;;;;;;;;4.20;4.20;;;;;30.89;40.52;99646.84;6342424;20;2750243;-59
2022/07/06 10:36:28;;;;;;;;;4.20;4.00;;;;;31.00;40.88;99651.63;6310889;20;2735822;-60
2022/07/06 10:38:57;;;;;;;;;4.67;4.67;;;;;30.34;42.19;99645.56;6284151;20;2735750;-60
2022/07/06 10:41:37;;;;;;;;;4.33;4.33;;;;;30.72;41.50;99636.28;6321340;20;2736863;-59
2022/07/06 10:44:19;;;;;;;;;4.00;4.00;;;;;30.62;40.32;99630.41;6321750;20;2740870;-59
2022/07/06 10:47:00;;;;;;;;;4.33;4.33;;;;;30.37;40.54;99633.19;6315813;20;2749241;-59
2022/07/06 10:49:28;;;;;;;;;4.00;4.00;;;;;30.67;40.35;99633.34;6322435;20;2742979;-60
2022/07/06 10:52:18;;;;;;;;;3.00;3.00;;;;;31.03;38.66;99637.31;6335492;20;2774265;-61
2022/07/06 10:54:47;;;;;;;;;4.20;4.20;;;;;30.65;39.62;99635.53;6340480;20;2745115;-60
2022/07/06 10:57:18;;;;;;;;;5.00;4.00;;;;;30.26;40.06;99632.00;6285954;20;2754967;-60
2022/07/06 11:00:08;;;;;;;;;3.00;3.00;;;;;31.52;38.92;99632.72;6300394;20;2748218;-61
2022/07/06 11:02:41;;;;;;;;;4.60;3.40;;;;;30.52;38.65;99624.56;6315129;20;2741939;-61
2022/07/06 11:05:43;;;;;;;;;2.60;2.00;;;;;30.27;39.02;99633.69;6311884;20;2751430;-60
2022/07/06 11:08:54;;;;;;;;;3.00;3.00;;;;;29.35;40.19;99635.81;6314137;20;2748307;-60
2022/07/06 11:11:32;;;;;;;;;2.60;2.60;;;;;28.80;41.49;99641.63;6311978;20;2733672;-61
2022/07/06 11:14:05;;;;;;;;;3.80;3.80;;;;;29.03;40.83;99643.94;6313153;20;2737749;-61
2022/07/06 11:17:03;;;;;;;;;6.60;4.60;;;;;28.80;41.13;99638.03;6312055;20;2748253;-60
2022/07/06 11:19:32;;;;;;;;;5.00;5.00;;;;;28.61;41.91;99629.53;6288156;20;2750256;-59
2022/07/06 11:22:09;;;;;;;;;4.00;4.00;;;;;29.56;40.45;99636.59;6314073;20;2741919;-59
2022/07/06 11:24:42;;;;;;;;;3.80;3.80;;;;;30.80;37.96;99640.69;6338599;20;2732532;-58
2022/07/06 11:27:13;;;;;;;;;2.80;2.80;;;;;30.81;36.59;99640.50;6305363;20;2753366;-59
2022/07/06 11:29:44;;;;;;;;;2.00;2.00;;;;;31.10;36.24;99631.69;6312547;20;2736791;-59
2022/07/06 11:32:14;;;;;;;;;3.00;3.00;;;;;31.21;35.27;99634.56;6294556;20;2734649;-59